createdAt,value
2023-06-23T00:04:04.545Z,14.40
2023-06-23T00:08:57.314Z,13.23
2023-06-23T00:13:47.433Z,12.75
2023-06-23T00:18:39.040Z,16.58
2023-06-23T00:23:30.727Z,19.60
2023-06-23T00:28:23.409Z,12.30
2023-06-23T00:33:13.429Z,15.30
2023-06-23T00:38:04.952Z,12.98
2023-06-23T00:42:56.755Z,15.35
2023-06-23T00:47:52.231Z,18.20
2023-06-23T00:52:42.314Z,20.45
2023-06-23T00:57:32.602Z,13.38
2023-06-23T01:02:24.017Z,17.48
2023-06-23T01:07:27.564Z,15.10
2023-06-23T01:12:26.798Z,15.05
2023-06-23T01:17:25.692Z,17.02
2023-06-23T01:22:25.359Z,18.23
2023-06-23T01:27:42.473Z,23.63
2023-06-23T01:32:39.311Z,23.20
2023-06-23T01:37:33.662Z,25.38
2023-06-23T01:42:27.116Z,22.77
2023-06-23T01:47:20.933Z,24.13
2023-06-23T01:52:16.556Z,25.85
2023-06-23T01:57:08.354Z,25.35
2023-06-23T02:02:01.272Z,30.98
2023-06-23T02:06:54.457Z,32.00
2023-06-23T02:11:49.960Z,30.75
2023-06-23T02:21:31.847Z,35.33
2023-06-23T02:26:24.198Z,29.90
2023-06-23T02:31:17.389Z,31.85
2023-06-23T02:36:11.169Z,32.72
2023-06-23T02:41:02.196Z,34.47
2023-06-23T02:45:55.209Z,33.45
2023-06-23T02:50:53.401Z,33.53
2023-06-23T02:55:48.953Z,34.20
2023-06-23T03:00:39.587Z,34.72
2023-06-23T03:05:30.389Z,38.10
2023-06-23T03:10:24.564Z,37.08
2023-06-23T03:15:15.356Z,36.03
2023-06-23T03:20:13.940Z,40.63
2023-06-23T03:25:07.555Z,44.80
2023-06-23T03:30:06.646Z,42.22
2023-06-23T03:35:04.122Z,47.50
2023-06-23T03:40:00.576Z,48.85
2023-06-23T03:44:54.201Z,52.25
2023-06-23T03:49:50.841Z,53.67
2023-06-23T03:54:42.841Z,58.80
2023-06-23T03:59:35.109Z,54.35
2023-06-23T04:04:26.570Z,60.53
2023-06-23T04:09:22.743Z,56.70
2023-06-23T04:14:14.652Z,59.15
2023-06-23T04:19:06.765Z,62.72
2023-06-23T04:23:59.138Z,61.38
2023-06-23T04:28:56.171Z,63.40
2023-06-23T04:33:46.555Z,62.13
2023-06-23T04:38:41.219Z,61.38
2023-06-23T04:43:39.206Z,64.47
2023-06-23T04:48:37.655Z,61.08
2023-06-23T04:53:33.550Z,59.53
2023-06-23T04:58:27.041Z,56.40
2023-06-23T05:03:19.673Z,62.53
2023-06-23T05:08:14.388Z,59.20
2023-06-23T05:13:07.496Z,52.42
2023-06-23T05:18:01.184Z,57.70
2023-06-23T05:22:54.434Z,50.67
2023-06-23T05:27:51.257Z,51.72
2023-06-23T05:32:44.900Z,47.92
2023-06-23T05:37:37.958Z,48.55
2023-06-23T05:42:28.753Z,51.05
2023-06-23T05:47:27.237Z,48.15
2023-06-23T05:52:26.302Z,49.65
2023-06-23T05:57:26.775Z,42.53
2023-06-23T06:02:25.920Z,46.50
2023-06-23T06:07:19.034Z,41.95
2023-06-23T06:12:11.290Z,38.92
2023-06-23T06:17:03.343Z,40.47
2023-06-23T06:21:59.259Z,40.75
2023-06-23T06:26:51.110Z,41.45
2023-06-23T06:31:42.844Z,33.50
2023-06-23T06:36:35.676Z,43.45
2023-06-23T06:41:29.017Z,38.67
2023-06-23T06:46:20.303Z,37.00
2023-06-23T06:51:14.282Z,33.80
2023-06-23T06:56:04.728Z,33.13
2023-06-23T07:00:58.504Z,33.33
2023-06-23T07:05:48.699Z,28.80
2023-06-23T07:10:39.747Z,23.10
2023-06-23T07:15:29.844Z,19.10
2023-06-23T07:20:25.944Z,21.75
2023-06-23T07:25:16.111Z,14.95
2023-06-23T07:30:06.949Z,17.98
2023-06-23T07:34:58.103Z,15.43
2023-06-23T07:39:50.921Z,14.23
2023-06-23T07:44:41.150Z,13.18
2023-06-23T07:49:32.336Z,12.55
2023-06-23T07:54:22.199Z,11.70
2023-06-23T07:59:16.622Z,12.90
2023-06-23T08:04:07.202Z,9.52
2023-06-23T08:08:57.758Z,12.43
2023-06-23T08:13:48.305Z,14.63
2023-06-23T08:18:41.117Z,11.98
2023-06-23T08:23:35.429Z,12.30
2023-06-23T08:33:16.955Z,10.23
2023-06-23T08:38:14.180Z,5.95
2023-06-23T08:43:15.705Z,7.80
2023-06-23T08:48:07.309Z,10.77
2023-06-23T08:53:00.619Z,12.43
2023-06-23T08:57:53.937Z,9.65
2023-06-23T09:02:44.464Z,8.30
2023-06-23T09:07:35.449Z,8.80
2023-06-23T09:12:26.912Z,4.90
2023-06-23T09:17:20.473Z,7.10
2023-06-23T09:22:11.451Z,7.03
2023-06-23T09:27:03.835Z,7.95
2023-06-23T09:31:57.046Z,8.70
2023-06-23T09:36:49.525Z,11.20
2023-06-23T09:41:51.832Z,8.90
2023-06-23T09:46:42.375Z,6.72
2023-06-23T09:51:32.685Z,7.25
2023-06-23T09:56:25.731Z,4.97
2023-06-23T10:01:19.084Z,5.43
2023-06-23T10:06:09.461Z,7.28
2023-06-23T10:11:07.025Z,4.55
2023-06-23T10:16:02.154Z,4.72
2023-06-23T10:20:52.299Z,5.45
2023-06-23T10:25:48.858Z,3.88
2023-06-23T10:30:43.328Z,3.30
2023-06-23T10:35:38.122Z,5.60
2023-06-23T10:40:31.571Z,4.40
2023-06-23T10:45:21.863Z,4.80
2023-06-23T10:50:15.513Z,3.53
2023-06-23T10:56:03.132Z,3.13
2023-06-23T11:01:05.265Z,3.15
2023-06-23T11:05:57.344Z,5.00
2023-06-23T11:10:55.778Z,6.78
2023-06-23T11:15:54.851Z,4.72
2023-06-23T11:20:45.434Z,6.22
2023-06-23T11:25:37.656Z,6.80
2023-06-23T11:30:31.824Z,7.05
2023-06-23T11:35:22.188Z,4.88
2023-06-23T11:40:12.756Z,4.70
2023-06-23T11:45:02.703Z,5.68
2023-06-23T11:49:55.644Z,4.50
2023-06-23T11:54:46.752Z,4.35
2023-06-23T11:59:40.531Z,4.47
2023-06-23T12:04:30.914Z,4.45
2023-06-23T12:09:25.227Z,4.10
2023-06-23T12:14:15.144Z,5.03
2023-06-23T12:19:05.239Z,5.93
2023-06-23T12:23:57.533Z,3.97
2023-06-23T12:28:50.507Z,6.45
2023-06-23T12:33:43.740Z,4.15
2023-06-23T12:38:34.827Z,9.38
2023-06-23T12:43:26.124Z,5.80
2023-06-23T12:48:20.585Z,7.30
2023-06-23T12:53:10.822Z,7.05
2023-06-23T12:58:00.700Z,7.90
2023-06-23T13:02:51.810Z,6.82
2023-06-23T13:07:44.664Z,11.52
2023-06-23T13:12:34.584Z,11.52
2023-06-23T13:17:24.746Z,7.65
2023-06-23T13:22:15.089Z,9.13
2023-06-23T13:27:09.662Z,7.38
2023-06-23T13:31:59.729Z,8.27
2023-06-23T13:36:51.810Z,8.38
2023-06-23T13:41:41.762Z,6.82
2023-06-23T13:46:34.238Z,6.32
2023-06-23T13:51:24.294Z,5.68
2023-06-23T13:56:17.360Z,5.85
2023-06-23T14:01:07.639Z,5.80
2023-06-23T14:06:04.979Z,5.80
2023-06-23T14:10:55.609Z,7.15
2023-06-23T14:15:45.864Z,6.82
2023-06-23T14:20:35.825Z,5.18
2023-06-23T14:25:28.706Z,5.53
2023-06-23T14:30:18.948Z,4.55
2023-06-23T14:35:12.196Z,4.65
2023-06-23T14:40:05.705Z,5.82
2023-06-23T14:44:58.795Z,6.88
2023-06-23T14:49:48.959Z,3.30
2023-06-23T14:54:40.562Z,4.07
2023-06-23T14:59:30.427Z,13.52
2023-06-23T15:04:23.396Z,5.53
2023-06-23T15:09:13.605Z,7.90
2023-06-23T15:14:03.739Z,3.25
2023-06-23T15:18:58.750Z,2.75
2023-06-23T15:23:51.705Z,2.83
2023-06-23T15:28:41.717Z,2.60
2023-06-23T15:33:31.849Z,3.72
2023-06-23T15:38:22.237Z,2.78
2023-06-23T15:43:16.980Z,4.97
2023-06-23T15:48:14.712Z,3.08
2023-06-23T15:53:04.999Z,5.18
2023-06-23T15:57:55.006Z,5.10
2023-06-23T16:02:47.618Z,2.47
2023-06-23T16:07:37.647Z,3.40
2023-06-23T16:12:27.559Z,3.85
2023-06-23T16:17:17.545Z,4.68
2023-06-23T16:22:10.582Z,3.10
2023-06-23T16:27:00.908Z,3.85
2023-06-23T16:31:51.005Z,5.20
2023-06-23T16:36:41.069Z,4.20
2023-06-23T16:41:36.904Z,2.80
2023-06-23T16:46:27.841Z,6.35
2023-06-23T16:51:25.627Z,2.42
2023-06-23T16:56:23.212Z,2.20
2023-06-23T17:01:15.995Z,7.72
2023-06-23T17:06:05.929Z,5.63
2023-06-23T17:10:55.912Z,7.35
2023-06-23T17:15:45.905Z,4.65
2023-06-23T17:20:38.476Z,6.55
2023-06-23T17:25:28.370Z,4.03
2023-06-23T17:30:19.807Z,3.75
2023-06-23T17:35:10.295Z,14.07
2023-06-23T17:40:03.339Z,9.65
2023-06-23T17:44:53.238Z,4.20
2023-06-23T17:49:43.211Z,4.05
2023-06-23T17:54:33.169Z,2.15
2023-06-23T17:59:26.022Z,6.55
2023-06-23T18:04:16.119Z,5.30
2023-06-23T18:09:06.077Z,2.58
2023-06-23T18:13:56.025Z,3.25
2023-06-23T18:18:48.857Z,2.53
2023-06-23T18:23:38.681Z,3.10
2023-06-23T18:28:31.388Z,2.75
2023-06-23T18:33:21.309Z,2.45
2023-06-23T18:38:15.216Z,2.58
2023-06-23T18:43:05.624Z,2.60
2023-06-23T18:47:55.612Z,5.10
2023-06-23T18:52:48.993Z,10.52
2023-06-23T18:57:41.619Z,3.40
2023-06-23T19:02:31.701Z,3.50
2023-06-23T19:07:24.976Z,3.22
2023-06-23T19:12:17.185Z,3.17
2023-06-23T19:17:10.822Z,3.53
2023-06-23T19:22:05.643Z,5.35
2023-06-23T19:26:59.049Z,3.20
2023-06-23T19:31:49.200Z,4.82
2023-06-23T19:36:43.016Z,3.17
2023-06-23T19:41:33.023Z,5.05
2023-06-23T19:46:24.463Z,4.53
2023-06-23T19:51:15.623Z,3.50
2023-06-23T19:56:09.430Z,4.35
2023-06-23T20:00:59.458Z,3.60
2023-06-23T20:05:49.390Z,4.68
2023-06-23T20:10:40.061Z,4.90
2023-06-23T20:15:32.891Z,6.07
2023-06-23T20:20:23.052Z,3.83
2023-06-23T20:25:14.458Z,4.35
2023-06-23T20:30:04.422Z,3.90
2023-06-23T20:34:57.005Z,5.35
2023-06-23T20:39:48.659Z,5.75
2023-06-23T20:44:40.718Z,6.35
2023-06-23T20:49:30.590Z,9.75
2023-06-23T20:54:23.189Z,7.53
2023-06-23T20:59:13.116Z,4.82
2023-06-23T21:04:03.337Z,5.97
2023-06-23T21:08:53.323Z,5.30
2023-06-23T21:13:46.226Z,6.70
2023-06-23T21:18:36.522Z,6.55
2023-06-23T21:23:26.535Z,7.28
2023-06-23T21:28:16.586Z,5.47
2023-06-23T21:33:09.790Z,6.65
2023-06-23T21:38:02.072Z,7.07
2023-06-23T21:42:52.049Z,4.40
2023-06-23T21:47:43.153Z,3.90
2023-06-23T21:52:38.175Z,3.88
2023-06-23T21:57:28.183Z,3.83
2023-06-23T22:02:18.366Z,4.43
2023-06-23T22:07:10.515Z,6.72
2023-06-23T22:12:03.154Z,2.97
2023-06-23T22:16:53.097Z,3.35
2023-06-23T22:21:44.531Z,3.17
2023-06-23T22:26:36.075Z,3.38
2023-06-23T22:31:29.018Z,4.57
2023-06-23T22:36:19.027Z,3.00
2023-06-23T22:41:09.388Z,3.08
2023-06-23T22:45:59.498Z,2.30
2023-06-23T22:50:52.872Z,2.53
2023-06-23T22:55:42.883Z,3.97
2023-06-23T23:00:34.022Z,2.67
2023-06-23T23:05:26.283Z,4.88
2023-06-23T23:10:19.105Z,1.95
2023-06-23T23:15:11.900Z,2.58
2023-06-23T23:20:02.043Z,2.75
2023-06-23T23:24:53.314Z,2.65
2023-06-23T23:29:47.161Z,8.73
2023-06-23T23:34:39.049Z,3.17
2023-06-23T23:39:28.980Z,6.80
2023-06-23T23:44:19.346Z,4.10
2023-06-23T23:49:12.341Z,4.15
2023-06-23T23:54:02.275Z,2.33
2023-06-23T23:58:52.578Z,4.55
